Time;durP1;ratioP1;P1;durP2;ratioP2;P2;SDS_P1;SDS_P2;PMS_P1;PMS_P2;Temp;Humidity;BMP_temperature;BMP_pressure;BME280_temperature;BME280_humidity;BME280_pressure;Samples;Min_cycle;Max_cycle;Signal;HPM_P1;HPM_P2
2022/01/01 00:01:19;;;;;;;6.72;4.03;;;6.70;99.30;;;;;;5125871;27;20068;-77
2022/01/01 00:03:44;;;;;;;5.50;2.67;;;6.50;99.00;;;;;;5126742;27;20031;-77
2022/01/01 00:06:10;;;;;;;7.18;2.70;;;6.50;98.50;;;;;;5126841;27;20035;-77
2022/01/01 00:08:36;;;;;;;4.75;2.47;;;6.40;98.60;;;;;;5126051;27;20049;-77
2022/01/01 00:11:02;;;;;;;4.93;2.45;;;6.40;98.70;;;;;;5126490;27;20043;-76
2022/01/01 00:13:27;;;;;;;7.18;3.00;;;6.50;98.70;;;;;;5126273;27;20019;-77
2022/01/01 00:15:53;;;;;;;6.82;3.90;;;6.70;98.40;;;;;;5127315;27;20020;-77
2022/01/01 00:18:19;;;;;;;5.30;3.08;;;6.50;98.80;;;;;;5127075;27;20295;-77
2022/01/01 00:20:45;;;;;;;4.72;2.45;;;6.30;98.90;;;;;;5108908;27;20031;-77
2022/01/01 00:23:10;;;;;;;8.23;3.00;;;6.20;99.00;;;;;;5126569;27;20110;-77
2022/01/01 00:25:36;;;;;;;4.65;2.58;;;6.20;98.70;;;;;;5127234;27;20046;-77
2022/01/01 00:28:02;;;;;;;7.43;2.50;;;6.40;98.70;;;;;;5126829;27;20111;-77
2022/01/01 00:30:28;;;;;;;8.38;4.03;;;6.70;98.40;;;;;;5127464;27;20883;-77
2022/01/01 00:32:53;;;;;;;6.95;4.35;;;6.50;98.70;;;;;;5126349;27;20034;-77
2022/01/01 00:35:19;;;;;;;8.80;3.38;;;6.20;99.40;;;;;;5127191;27;20027;-77
2022/01/01 00:37:45;;;;;;;14.45;12.88;;;6.10;99.40;;;;;;5126880;27;20031;-77
2022/01/01 00:40:11;;;;;;;5.65;2.63;;;6.30;99.30;;;;;;5127109;27;20019;-77
2022/01/01 00:42:37;;;;;;;6.10;2.70;;;6.50;98.50;;;;;;5125909;27;20027;-77
2022/01/01 00:45:03;;;;;;;5.72;2.80;;;6.60;98.50;;;;;;5126794;27;20528;-77
2022/01/01 00:47:29;;;;;;;5.97;3.13;;;7.00;98.20;;;;;;5126353;27;20091;-77
2022/01/01 00:49:54;;;;;;;6.45;2.65;;;7.10;98.10;;;;;;5126778;27;20019;-77
2022/01/01 00:52:20;;;;;;;4.30;2.00;;;7.00;97.80;;;;;;5125999;27;20027;-77
2022/01/01 00:54:46;;;;;;;3.58;2.00;;;6.90;97.80;;;;;;5126017;28;20378;-77
2022/01/01 00:57:11;;;;;;;6.47;3.72;;;6.80;97.90;;;;;;5126720;28;20023;-77
2022/01/01 00:59:37;;;;;;;7.45;2.60;;;6.60;98.10;;;;;;5126802;28;20080;-77
2022/01/01 01:02:03;;;;;;;6.50;4.40;;;6.30;98.50;;;;;;5126402;28;20027;-77
2022/01/01 01:04:29;;;;;;;7.00;3.97;;;6.30;98.90;;;;;;5126076;28;20522;-76
2022/01/01 01:06:55;;;;;;;13.48;8.70;;;6.00;99.10;;;;;;5124835;28;20035;-77
2022/01/01 01:09:20;;;;;;;57.00;31.15;;;5.60;99.90;;;;;;5125673;28;20038;-76
2022/01/01 01:11:48;;;;;;;16.17;9.63;;;5.50;99.90;;;;;;5126635;28;20050;-76
2022/01/01 01:14:24;;;;;;;6.75;3.22;;;5.50;99.90;;;;;;5126306;28;20023;-77
2022/01/01 01:16:52;;;;;;;6.55;3.05;;;5.90;99.90;;;;;;5126724;28;20080;-76
2022/01/01 01:19:18;;;;;;;4.68;2.30;;;6.60;98.40;;;;;;5126252;28;20050;-76
2022/01/01 01:21:44;;;;;;;6.03;2.90;;;6.80;97.80;;;;;;5108327;28;20027;-76
2022/01/01 01:24:12;;;;;;;5.47;3.33;;;6.90;97.60;;;;;;5125613;28;20076;-76
2022/01/01 01:26:38;;;;;;;6.05;3.08;;;6.70;98.10;;;;;;5126395;28;20036;-76
2022/01/01 01:29:05;;;;;;;5.35;3.00;;;6.80;97.80;;;;;;5126405;28;20038;-76
2022/01/01 01:31:31;;;;;;;6.00;2.63;;;6.90;97.50;;;;;;5126281;28;20111;-76
2022/01/01 01:33:56;;;;;;;5.63;2.70;;;6.90;97.60;;;;;;5125939;28;20024;-76
2022/01/01 01:36:22;;;;;;;8.10;2.67;;;6.70;97.40;;;;;;5126171;28;20030;-76
2022/01/01 01:38:48;;;;;;;5.15;2.38;;;6.60;97.60;;;;;;5126327;28;20088;-76
2022/01/01 01:41:14;;;;;;;5.28;2.33;;;6.60;97.80;;;;;;5126375;28;20087;-77
2022/01/01 01:43:40;;;;;;;5.70;2.75;;;6.80;97.40;;;;;;5125981;28;20023;-76
2022/01/01 01:46:06;;;;;;;4.18;2.10;;;6.70;97.40;;;;;;5126138;28;20367;-76
2022/01/01 01:48:34;;;;;;;5.20;2.05;;;6.50;97.60;;;;;;5125999;28;20020;-76
2022/01/01 01:51:00;;;;;;;7.38;2.72;;;6.20;97.90;;;;;;5126271;28;20050;-76
2022/01/01 01:53:27;;;;;;;7.22;2.97;;;6.30;97.90;;;;;;5125923;28;20034;-76
2022/01/01 01:55:54;;;;;;;6.78;3.35;;;6.80;97.60;;;;;;5125807;28;20035;-76
2022/01/01 01:58:20;;;;;;;6.85;3.65;;;6.60;97.50;;;;;;5126321;28;20027;-76
2022/01/01 02:03:17;;;;;;;8.00;4.40;;;6.40;98.00;;;;;;5126851;27;20127;-76
2022/01/01 02:05:45;;;;;;;10.13;4.25;;;5.90;98.70;;;;;;5129490;27;20114;-76
2022/01/01 02:08:12;;;;;;;5.68;2.35;;;5.70;99.10;;;;;;5129754;27;20030;-76
2022/01/01 02:10:40;;;;;;;5.63;2.47;;;5.70;98.90;;;;;;5128926;27;20051;-76
2022/01/01 02:13:12;;;;;;;3.90;2.08;;;5.70;98.70;;;;;;5130016;27;20023;-76
2022/01/01 02:15:47;;;;;;;6.78;2.95;;;5.80;98.60;;;;;;5115545;27;20031;-76
2022/01/01 02:18:12;;;;;;;4.90;2.58;;;5.50;99.20;;;;;;5130479;27;20027;-76
2022/01/01 02:20:38;;;;;;;4.78;2.22;;;5.70;98.60;;;;;;5130115;27;20031;-76
2022/01/01 02:23:05;;;;;;;5.10;1.70;;;5.90;98.10;;;;;;5130459;27;20547;-76
2022/01/01 02:25:31;;;;;;;3.55;1.70;;;6.00;98.00;;;;;;5129243;27;20161;-76
2022/01/01 02:27:57;;;;;;;4.75;2.03;;;6.10;97.80;;;;;;5129992;27;20106;-76
2022/01/01 02:30:23;;;;;;;6.35;2.20;;;6.10;97.70;;;;;;5129835;27;20027;-76
2022/01/01 02:32:49;;;;;;;4.13;1.83;;;6.10;97.70;;;;;;5129983;27;20031;-76
2022/01/01 02:35:16;;;;;;;4.38;2.00;;;6.20;97.50;;;;;;5129809;27;20023;-76
2022/01/01 02:37:42;;;;;;;5.40;3.05;;;6.10;97.70;;;;;;5129635;27;20024;-76
2022/01/01 02:40:09;;;;;;;5.40;2.42;;;6.00;97.70;;;;;;5129573;27;20031;-76
2022/01/01 02:42:38;;;;;;;19.25;4.15;;;5.80;98.30;;;;;;5130108;27;20023;-76
2022/01/01 02:45:08;;;;;;;4.30;2.25;;;5.70;98.80;;;;;;5129368;27;20023;-76
2022/01/01 02:47:34;;;;;;;4.45;1.90;;;5.50;98.90;;;;;;5129518;27;20027;-76
2022/01/01 02:49:59;;;;;;;4.40;2.28;;;5.60;98.50;;;;;;5129413;27;20030;-76
2022/01/01 02:52:25;;;;;;;6.00;2.67;;;5.70;98.50;;;;;;5129426;27;20019;-76
2022/01/01 02:54:51;;;;;;;4.85;2.30;;;5.70;98.70;;;;;;5129405;27;20027;-77
2022/01/01 02:57:17;;;;;;;3.42;1.77;;;6.00;97.70;;;;;;5129145;27;20031;-76
2022/01/01 02:59:43;;;;;;;4.07;1.63;;;6.00;97.50;;;;;;5129132;27;20031;-76
2022/01/01 03:02:09;;;;;;;5.07;2.22;;;5.80;97.60;;;;;;5132047;27;20098;-76
2022/01/01 03:04:34;;;;;;;5.95;2.65;;;5.80;97.80;;;;;;5134831;27;20098;-76
2022/01/01 03:07:00;;;;;;;6.72;2.97;;;5.60;98.20;;;;;;5133578;27;20034;-76
2022/01/01 03:09:34;;;;;;;6.63;3.33;;;5.50;98.70;;;;;;5134900;27;20023;-76
2022/01/01 03:12:04;;;;;;;4.70;2.77;;;5.30;98.80;;;;;;5134172;27;20121;-76
2022/01/01 03:14:30;;;;;;;3.75;1.85;;;5.50;98.60;;;;;;5134196;27;20261;-76
2022/01/01 03:16:56;;;;;;;4.72;2.20;;;5.50;98.30;;;;;;5133772;27;20500;-76
2022/01/01 03:19:22;;;;;;;5.38;1.95;;;5.60;98.10;;;;;;5134131;27;20019;-76
2022/01/01 03:21:48;;;;;;;4.03;2.08;;;5.80;97.80;;;;;;5134045;27;20027;-76
2022/01/01 03:24:15;;;;;;;5.38;2.45;;;5.80;97.70;;;;;;5134393;27;20481;-76
2022/01/01 03:26:41;;;;;;;4.45;2.28;;;5.60;98.20;;;;;;5133765;27;20031;-76
2022/01/01 03:29:06;;;;;;;6.65;3.20;;;5.50;98.40;;;;;;5134448;27;20049;-76
2022/01/01 03:31:32;;;;;;;5.75;2.80;;;5.40;98.90;;;;;;5133912;27;20071;-76
2022/01/01 03:33:58;;;;;;;4.28;2.13;;;5.30;98.60;;;;;;5133902;27;20031;-76
2022/01/01 03:36:27;;;;;;;4.10;1.90;;;5.60;98.00;;;;;;5133731;27;20031;-76
2022/01/01 03:38:53;;;;;;;5.30;1.77;;;5.60;97.80;;;;;;5133206;27;20034;-76
2022/01/01 03:41:19;;;;;;;5.00;2.33;;;5.80;97.70;;;;;;5134042;27;20019;-76
2022/01/01 03:43:46;;;;;;;3.65;2.10;;;5.80;97.60;;;;;;5133555;27;20029;-76
2022/01/01 03:46:12;;;;;;;6.28;3.10;;;5.70;97.80;;;;;;5133860;27;20035;-76
2022/01/01 03:48:38;;;;;;;4.85;2.38;;;5.70;98.10;;;;;;5133231;27;20015;-76
2022/01/01 03:51:04;;;;;;;4.10;1.83;;;5.70;97.50;;;;;;5132696;27;20060;-76
2022/01/01 03:53:29;;;;;;;7.60;2.47;;;5.80;97.30;;;;;;5133044;27;20034;-76
2022/01/01 03:55:55;;;;;;;4.53;2.42;;;5.90;97.30;;;;;;5133027;27;20445;-76
2022/01/01 03:58:21;;;;;;;6.85;2.13;;;6.00;97.20;;;;;;5133847;27;20038;-76
2022/01/01 04:00:47;;;;;;;4.80;2.03;;;6.20;96.80;;;;;;5133319;27;20481;-76
2022/01/01 04:03:16;;;;;;;5.60;1.67;;;6.10;96.90;;;;;;5119776;27;20074;-76
2022/01/01 04:05:41;;;;;;;5.10;2.05;;;6.00;96.90;;;;;;5108623;27;20035;-76
2022/01/01 04:08:08;;;;;;;5.80;2.53;;;6.20;96.80;;;;;;5110914;27;20023;-76
2022/01/01 04:10:35;;;;;;;5.70;2.25;;;6.20;96.60;;;;;;5126111;27;20438;-76
2022/01/01 04:13:02;;;;;;;4.63;1.75;;;6.40;96.30;;;;;;5124874;27;20023;-76
2022/01/01 04:15:29;;;;;;;5.78;2.70;;;6.40;96.20;;;;;;5126248;27;20080;-76
2022/01/01 04:17:59;;;;;;;4.85;2.15;;;6.40;96.40;;;;;;5124712;27;20027;-76
2022/01/01 04:20:26;;;;;;;3.05;1.55;;;6.20;96.80;;;;;;5124949;27;20027;-77
2022/01/01 04:22:53;;;;;;;5.28;2.15;;;5.90;97.40;;;;;;5126001;27;20058;-76
2022/01/01 04:25:21;;;;;;;7.28;2.63;;;5.80;97.20;;;;;;5123268;27;20027;-77
2022/01/01 04:27:52;;;;;;;4.45;2.35;;;5.70;97.40;;;;;;5124169;27;20020;-76
2022/01/01 04:30:52;;;;;;;5.32;3.03;;;5.60;97.80;;;;;;5127843;27;20027;-76
2022/01/01 04:33:18;;;;;;;4.65;2.33;;;5.40;98.10;;;;;;5127252;27;20413;-76
2022/01/01 04:35:43;;;;;;;7.85;2.60;;;5.20;98.40;;;;;;5127638;27;20030;-76
2022/01/01 04:38:22;;;;;;;6.35;2.67;;;5.00;98.60;;;;;;5127215;27;20034;-77
2022/01/01 04:40:48;;;;;;;5.68;3.30;;;5.20;99.00;;;;;;5127676;27;20118;-76
2022/01/01 04:43:13;;;;;;;7.85;4.85;;;5.40;98.50;;;;;;5127039;27;20485;-76
2022/01/01 04:45:39;;;;;;;7.07;3.65;;;5.50;98.30;;;;;;5126568;27;20035;-76
2022/01/01 04:48:05;;;;;;;4.97;2.10;;;5.30;98.70;;;;;;5127610;27;20039;-76
2022/01/01 04:51:11;;;;;;;5.38;2.20;;;5.20;98.20;;;;;;5125031;27;20034;-76
2022/01/01 04:53:43;;;;;;;4.60;2.33;;;5.40;97.70;;;;;;5120002;27;20675;-76
2022/01/01 04:56:09;;;;;;;5.88;2.50;;;5.80;97.10;;;;;;5127643;27;20469;-76
2022/01/01 04:58:35;;;;;;;4.22;1.75;;;6.00;96.80;;;;;;5123374;28;20103;-76
2022/01/01 05:01:02;;;;;;;5.43;2.58;;;6.10;96.20;;;;;;5117820;28;20031;-76
2022/01/01 05:03:27;;;;;;;3.88;1.95;;;6.20;96.20;;;;;;5122716;28;20030;-76
2022/01/01 05:05:53;;;;;;;4.88;2.00;;;5.80;96.80;;;;;;5121026;28;20031;-76
2022/01/01 05:08:19;;;;;;;5.95;2.75;;;5.60;97.10;;;;;;5122492;28;20027;-76
2022/01/01 05:10:44;;;;;;;6.60;2.97;;;5.60;97.20;;;;;;5122128;28;20548;-76
2022/01/01 05:13:10;;;;;;;5.30;2.75;;;5.20;98.30;;;;;;5120972;27;20031;-76
2022/01/01 05:15:36;;;;;;;6.43;2.45;;;5.10;98.70;;;;;;5120444;28;20364;-76
2022/01/01 05:18:02;;;;;;;5.47;2.50;;;4.80;98.70;;;;;;5122567;28;20044;-76
2022/01/01 05:20:28;;;;;;;5.20;2.20;;;5.00;98.40;;;;;;5118203;27;20028;-77
2022/01/01 05:22:54;;;;;;;5.15;2.63;;;5.20;97.90;;;;;;5113724;28;20030;-76
2022/01/01 05:25:20;;;;;;;5.28;2.38;;;5.20;97.90;;;;;;5124347;28;20149;-76
2022/01/01 05:27:45;;;;;;;5.15;2.30;;;5.40;97.60;;;;;;5124860;28;20460;-76
2022/01/01 05:30:11;;;;;;;7.05;2.63;;;6.10;96.80;;;;;;5124294;28;20149;-76
2022/01/01 05:32:37;;;;;;;4.43;2.20;;;6.30;96.40;;;;;;5124438;28;20058;-77
2022/01/01 05:35:04;;;;;;;4.72;2.10;;;6.70;95.70;;;;;;5124060;28;20072;-76
2022/01/01 05:37:30;;;;;;;7.15;4.18;;;6.50;95.60;;;;;;5122454;27;20047;-77
2022/01/01 05:39:55;;;;;;;16.00;10.10;;;6.00;96.60;;;;;;5127887;27;20505;-76
2022/01/01 05:42:21;;;;;;;9.05;5.18;;;5.40;98.00;;;;;;5127450;27;20355;-76
2022/01/01 05:44:47;;;;;;;8.43;3.90;;;5.20;98.50;;;;;;5127987;27;20098;-76
2022/01/01 05:47:12;;;;;;;8.63;5.10;;;5.10;98.50;;;;;;5127185;27;20460;-76
2022/01/01 05:49:38;;;;;;;6.82;3.30;;;5.10;98.60;;;;;;5128236;27;20631;-76
2022/01/01 05:52:04;;;;;;;8.32;3.97;;;5.20;98.40;;;;;;5127642;27;20700;-76
2022/01/01 05:54:30;;;;;;;10.88;4.03;;;5.20;98.20;;;;;;5128566;27;20039;-76
2022/01/01 05:56:55;;;;;;;9.15;3.67;;;5.00;98.50;;;;;;5126973;27;20492;-76
2022/01/01 05:59:21;;;;;;;4.45;2.00;;;5.10;98.60;;;;;;5127423;27;20074;-76
2022/01/01 06:01:47;;;;;;;5.13;2.70;;;5.10;98.30;;;;;;5127519;27;20487;-76
2022/01/01 06:04:12;;;;;;;6.20;2.83;;;5.20;98.20;;;;;;5128037;27;20028;-76
2022/01/01 06:06:38;;;;;;;6.43;2.40;;;5.40;97.80;;;;;;5127205;27;20046;-76
2022/01/01 06:09:04;;;;;;;5.95;3.53;;;5.20;97.60;;;;;;5126913;27;20580;-76
2022/01/01 06:11:30;;;;;;;9.38;5.40;;;5.30;98.00;;;;;;5127170;27;20388;-77
2022/01/01 06:13:55;;;;;;;7.65;3.65;;;5.20;98.20;;;;;;5127433;27;20034;-76
2022/01/01 06:16:21;;;;;;;5.30;2.65;;;5.40;97.80;;;;;;5126830;27;20054;-77
2022/01/01 06:18:47;;;;;;;7.70;3.50;;;5.50;97.30;;;;;;5127003;27;20106;-76
2022/01/01 06:21:12;;;;;;;6.15;3.13;;;5.50;97.20;;;;;;5127010;27;20452;-76
2022/01/01 06:23:40;;;;;;;6.75;3.17;;;5.30;97.70;;;;;;5127044;27;20034;-76
2022/01/01 06:26:06;;;;;;;4.10;2.20;;;5.40;97.70;;;;;;5127098;27;20031;-76
2022/01/01 06:28:32;;;;;;;6.95;3.13;;;5.40;97.30;;;;;;5126802;27;20051;-76
2022/01/01 06:30:57;;;;;;;4.10;1.95;;;5.50;97.40;;;;;;5126412;27;20062;-76
2022/01/01 06:33:23;;;;;;;3.78;1.80;;;5.50;97.10;;;;;;5127445;27;20047;-76
2022/01/01 06:35:49;;;;;;;8.80;4.43;;;5.50;96.90;;;;;;5108630;27;20031;-76
2022/01/01 06:38:16;;;;;;;8.73;4.63;;;5.00;98.30;;;;;;5127462;27;20054;-77
2022/01/01 06:40:43;;;;;;;5.85;2.67;;;4.80;98.50;;;;;;5125847;27;20023;-76
2022/01/01 06:43:11;;;;;;;5.20;1.95;;;5.00;98.00;;;;;;5127276;27;20027;-76
2022/01/01 06:45:37;;;;;;;5.28;2.47;;;5.40;97.00;;;;;;5126274;27;20058;-76
2022/01/01 06:48:04;;;;;;;4.40;1.77;;;5.40;97.10;;;;;;5126978;27;20055;-76
2022/01/01 06:50:30;;;;;;;6.10;2.40;;;5.50;96.70;;;;;;5126159;27;20109;-76
2022/01/01 06:52:56;;;;;;;4.32;1.88;;;5.90;96.30;;;;;;5126442;27;20062;-76
2022/01/01 06:55:22;;;;;;;6.15;2.42;;;5.90;96.10;;;;;;5126514;27;20144;-77
2022/01/01 06:57:47;;;;;;;4.93;2.30;;;6.60;95.40;;;;;;5126726;27;20062;-77
2022/01/01 07:00:15;;;;;;;6.82;2.78;;;6.50;95.10;;;;;;5126084;27;20573;-76
2022/01/01 07:02:43;;;;;;;7.28;3.08;;;6.10;95.70;;;;;;5125834;27;20034;-76
2022/01/01 07:05:09;;;;;;;5.03;2.75;;;6.40;95.30;;;;;;5126668;27;20512;-76
2022/01/01 07:07:35;;;;;;;4.28;2.13;;;7.30;93.70;;;;;;5125646;27;20176;-76
2022/01/01 07:10:03;;;;;;;4.32;2.20;;;7.10;93.90;;;;;;5125518;27;20019;-76
2022/01/01 07:12:29;;;;;;;4.93;2.25;;;7.40;93.70;;;;;;5125933;27;20062;-76
2022/01/01 07:14:55;;;;;;;6.50;3.45;;;7.20;93.90;;;;;;5125903;27;20039;-76
2022/01/01 07:17:20;;;;;;;4.78;1.80;;;6.50;95.20;;;;;;5125947;27;20052;-76
2022/01/01 07:19:46;;;;;;;5.00;2.28;;;6.50;94.30;;;;;;5126020;27;20027;-76
2022/01/01 07:22:12;;;;;;;4.82;2.15;;;6.50;94.60;;;;;;5125290;27;20027;-76
2022/01/01 07:24:37;;;;;;;5.18;2.30;;;6.50;94.30;;;;;;5125391;27;20023;-76
2022/01/01 07:27:03;;;;;;;4.30;2.40;;;6.90;94.20;;;;;;5126117;27;20482;-76
2022/01/01 07:29:29;;;;;;;5.18;2.00;;;7.00;94.00;;;;;;5125619;27;20597;-77
2022/01/01 07:31:55;;;;;;;2.25;1.27;;;6.70;94.40;;;;;;5125502;27;20038;-77
2022/01/01 07:34:21;;;;;;;3.25;1.45;;;6.60;94.30;;;;;;5125843;27;20023;-76
2022/01/01 07:36:47;;;;;;;3.78;1.80;;;6.50;94.50;;;;;;5125896;27;20063;-77
2022/01/01 07:39:13;;;;;;;4.95;2.08;;;6.60;94.00;;;;;;5125330;27;20025;-76
2022/01/01 07:41:39;;;;;;;6.85;2.97;;;6.50;94.90;;;;;;5125665;27;20062;-77
2022/01/01 07:44:05;;;;;;;4.30;2.13;;;6.30;94.90;;;;;;5124609;27;20081;-76
2022/01/01 07:46:31;;;;;;;4.95;2.47;;;6.80;94.10;;;;;;5125649;27;20095;-77
2022/01/01 07:48:58;;;;;;;4.35;1.77;;;7.10;93.80;;;;;;5125229;27;20019;-76
2022/01/01 07:51:24;;;;;;;7.80;2.63;;;7.10;93.60;;;;;;5125599;27;20116;-76
2022/01/01 07:53:49;;;;;;;5.50;2.58;;;7.00;93.70;;;;;;5125106;27;20846;-76
2022/01/01 07:56:15;;;;;;;4.60;2.40;;;6.70;93.90;;;;;;5125096;27;20034;-76
2022/01/01 07:58:41;;;;;;;5.30;1.80;;;6.70;93.90;;;;;;5125246;27;20027;-76
2022/01/01 08:01:07;;;;;;;4.50;2.08;;;6.70;94.10;;;;;;5105559;27;20045;-76
2022/01/01 08:03:32;;;;;;;5.28;2.33;;;7.10;93.80;;;;;;5125428;27;20627;-76
2022/01/01 08:05:58;;;;;;;3.78;1.83;;;7.20;93.60;;;;;;5124554;27;20039;-76
2022/01/01 08:08:24;;;;;;;3.78;1.88;;;7.10;93.50;;;;;;5125108;27;20159;-76
2022/01/01 08:10:50;;;;;;;5.50;2.40;;;6.90;93.80;;;;;;5124938;27;20043;-76
2022/01/01 08:13:24;;;;;;;3.08;1.90;;;6.70;94.40;;;;;;5125327;27;20023;-76
2022/01/01 08:15:54;;;;;;;5.32;2.63;;;6.40;95.10;;;;;;5124575;27;20023;-76
2022/01/01 08:18:20;;;;;;;5.95;2.35;;;6.10;95.40;;;;;;5125221;27;20092;-76
2022/01/01 08:20:47;;;;;;;5.03;1.80;;;6.00;95.60;;;;;;5124957;27;20454;-76
2022/01/01 08:23:13;;;;;;;6.00;2.42;;;6.30;95.00;;;;;;5125234;27;20027;-76
2022/01/01 08:25:39;;;;;;;4.93;2.17;;;6.40;94.90;;;;;;5124435;27;20545;-76
2022/01/01 08:28:06;;;;;;;3.63;1.80;;;6.60;94.80;;;;;;5124617;27;20096;-76
2022/01/01 08:30:33;;;;;;;5.05;2.40;;;6.90;94.00;;;;;;5121804;27;20089;-76
2022/01/01 08:33:01;;;;;;;5.60;2.38;;;7.10;93.70;;;;;;5124057;27;20385;-76
2022/01/01 08:35:32;;;;;;;5.40;2.67;;;6.90;94.20;;;;;;5124225;27;20109;-76
2022/01/01 08:38:00;;;;;;;4.85;2.17;;;6.60;94.60;;;;;;5124819;27;20054;-76
2022/01/01 08:40:26;;;;;;;5.15;2.20;;;6.30;95.50;;;;;;5123697;27;20040;-76
2022/01/01 08:42:52;;;;;;;4.65;2.17;;;6.30;95.20;;;;;;5124579;27;20399;-76
2022/01/01 08:45:18;;;;;;;5.65;2.75;;;6.20;95.50;;;;;;5124285;27;20019;-76
2022/01/01 08:47:43;;;;;;;4.60;2.22;;;6.00;95.60;;;;;;5124824;27;20023;-76
2022/01/01 08:50:09;;;;;;;3.97;1.88;;;6.00;95.80;;;;;;5123258;27;20515;-76
2022/01/01 08:52:35;;;;;;;7.28;2.03;;;6.50;94.70;;;;;;5123596;27;20076;-76
2022/01/01 08:55:01;;;;;;;5.53;3.00;;;7.10;94.00;;;;;;5122970;27;20031;-76
2022/01/01 08:57:27;;;;;;;11.15;4.70;;;6.70;94.50;;;;;;5124564;28;20022;-76
2022/01/01 08:59:53;;;;;;;7.82;3.90;;;6.50;95.00;;;;;;5115264;28;20015;-77
2022/01/01 09:02:19;;;;;;;6.93;4.40;;;5.90;96.00;;;;;;5105992;28;20088;-76
2022/01/01 09:04:46;;;;;;;7.55;2.92;;;5.70;96.40;;;;;;5124033;28;20027;-76
2022/01/01 09:07:12;;;;;;;8.32;4.55;;;6.30;95.20;;;;;;5123301;28;20127;-76
2022/01/01 09:09:39;;;;;;;10.20;4.78;;;5.90;96.10;;;;;;5123923;28;20092;-76
2022/01/01 09:12:06;;;;;;;10.07;5.20;;;5.60;96.60;;;;;;5123874;27;20043;-76
2022/01/01 09:14:32;;;;;;;7.50;2.92;;;5.60;96.70;;;;;;5126337;27;20027;-76
2022/01/01 09:21:10;;;;;;;7.07;2.20;;;6.20;95.50;;;;;;5125453;27;20159;-76
2022/01/01 09:23:36;;;;;;;;;;;7.10;93.80;;;;;;5128629;27;20023;-76
2022/01/01 09:26:02;;;;;;;5.38;2.47;;;7.70;92.90;;;;;;5120655;27;20014;-76
2022/01/01 09:28:29;;;;;;;7.75;4.38;;;7.70;93.00;;;;;;5107883;28;20028;-76
2022/01/01 09:30:55;;;;;;;5.05;2.80;;;6.90;94.40;;;;;;5114519;27;20054;-76
2022/01/01 09:33:22;;;;;;;4.78;2.50;;;7.00;93.80;;;;;;5127288;27;20118;-76
2022/01/01 09:35:47;;;;;;;7.05;3.10;;;7.50;93.30;;;;;;5127900;27;20549;-76
2022/01/01 09:38:13;;;;;;;6.68;3.67;;;7.20;93.80;;;;;;5127921;27;20039;-76
2022/01/01 09:40:39;;;;;;;5.72;3.05;;;6.70;94.70;;;;;;5127868;27;20484;-76
2022/01/01 09:43:06;;;;;;;5.03;2.40;;;6.70;94.50;;;;;;5125693;27;20023;-76
2022/01/01 09:45:34;;;;;;;5.53;2.72;;;7.20;93.50;;;;;;5107494;28;20066;-76
2022/01/01 09:48:00;;;;;;;4.55;2.15;;;7.50;93.20;;;;;;5109827;27;20089;-76
2022/01/01 09:50:26;;;;;;;4.18;2.25;;;7.50;93.20;;;;;;5125815;27;20030;-77
2022/01/01 09:52:58;;;;;;;7.90;3.45;;;7.30;93.70;;;;;;5125612;27;20053;-76
2022/01/01 09:55:53;;;;;;;43.17;24.55;;;6.90;94.40;;;;;;5128045;27;20046;-77
2022/01/01 09:58:53;;;;;;;8.93;4.57;;;6.70;94.70;;;;;;5119609;27;20034;-74
2022/01/01 10:01:19;;;;;;;6.60;2.95;;;6.90;94.30;;;;;;5117161;27;20479;-74
2022/01/01 10:03:49;;;;;;;5.60;2.65;;;7.10;93.80;;;;;;5128623;27;20035;-75
2022/01/01 10:06:23;;;;;;;7.78;4.20;;;8.10;92.30;;;;;;5132725;27;20080;-73
2022/01/01 10:12:22;;;;;;;11.32;5.63;;;6.90;94.30;;;;;;5096183;27;20562;-74
2022/01/01 10:14:49;;;;;;;4.97;2.63;;;6.80;95.00;;;;;;5124311;28;20062;-73
2022/01/01 10:17:19;;;;;;;7.32;2.53;;;7.60;92.70;;;;;;5125661;28;20033;-72
2022/01/01 10:19:46;;;;;;;5.32;2.83;;;8.10;92.10;;;;;;5123991;28;20457;-72
2022/01/01 10:22:14;;;;;;;8.10;4.20;;;8.10;92.50;;;;;;5125696;28;20031;-72
2022/01/01 10:27:48;;;;;;;10.48;6.80;;;7.30;93.90;;;;;;5125817;28;20104;-72
2022/01/01 10:30:30;;;;;;;5.70;2.95;;;7.00;94.40;;;;;;5124556;28;20077;-72
2022/01/01 10:33:17;;;;;;;6.45;3.13;;;7.30;93.70;;;;;;5125366;28;20099;-72
2022/01/01 10:35:52;;;;;;;4.63;2.30;;;7.60;93.10;;;;;;5125616;28;20050;-72
2022/01/01 10:38:22;;;;;;;11.43;6.15;;;7.90;92.40;;;;;;5123334;28;20046;-73
2022/01/01 10:41:08;;;;;;;38.15;23.15;;;8.00;92.60;;;;;;5124980;28;20598;-73
2022/01/01 10:43:39;;;;;;;21.00;14.07;;;7.90;93.00;;;;;;5125808;28;20064;-73
2022/01/01 10:46:06;;;;;;;9.95;6.07;;;7.70;93.40;;;;;;5124557;28;20489;-73
2022/01/01 10:51:07;;;;;;;8.40;3.42;;;7.60;93.30;;;;;;5124612;28;20143;-73
2022/01/01 10:53:34;;;;;;;5.15;2.35;;;7.80;93.10;;;;;;5125606;28;20485;-73
2022/01/01 10:56:15;;;;;;;8.80;4.72;;;8.10;92.60;;;;;;5125348;28;20022;-73
2022/01/01 10:58:42;;;;;;;9.32;4.75;;;8.20;93.90;;;;;;5125207;28;20023;-72
2022/01/01 11:01:09;;;;;;;6.45;3.00;;;8.10;94.20;;;;;;5127889;28;20354;-73
2022/01/01 11:03:42;;;;;;;5.53;2.97;;;8.60;92.40;;;;;;5124297;28;20491;-73
2022/01/01 11:06:10;;;;;;;6.60;2.85;;;8.70;93.10;;;;;;5125379;28;20035;-74
2022/01/01 11:08:38;;;;;;;7.15;3.58;;;8.80;92.90;;;;;;5124306;28;20103;-73
2022/01/01 11:11:04;;;;;;;7.75;4.10;;;8.90;93.10;;;;;;5123394;28;20613;-73
2022/01/01 11:13:32;;;;;;;5.78;3.42;;;8.70;93.20;;;;;;5079719;27;1307310;-74
2022/01/01 11:19:42;;;;;;;10.57;6.05;;;9.10;93.20;;;;;;5126100;27;20068;-73
2022/01/01 11:22:09;;;;;;;12.48;4.85;;;8.90;94.00;;;;;;5125254;27;20031;-71
2022/01/01 11:24:38;;;;;;;9.77;5.25;;;9.20;92.70;;;;;;5107270;27;20027;-72
2022/01/01 11:27:05;;;;;;;8.80;5.95;;;9.40;93.20;;;;;;5121906;27;20107;-72
2022/01/01 11:30:03;;;;;;;9.77;4.20;;;9.60;93.40;;;;;;5123974;27;20122;-72
2022/01/01 11:35:56;;;;;;;7.97;4.57;;;9.20;93.90;;;;;;5124484;27;20066;-72
2022/01/01 11:38:24;;;;;;;11.10;4.93;;;9.20;93.60;;;;;;5126021;27;20034;-72
2022/01/01 11:41:08;;;;;;;10.77;5.60;;;9.20;93.70;;;;;;5125489;27;20031;-72
2022/01/01 11:43:54;;;;;;;10.32;5.05;;;9.30;94.10;;;;;;5125777;27;20027;-72
2022/01/01 11:46:22;;;;;;;7.72;4.40;;;9.60;94.30;;;;;;5125908;27;20035;-72
2022/01/01 11:48:52;;;;;;;17.02;10.27;;;9.50;93.50;;;;;;5112162;27;20061;-72
2022/01/01 11:51:38;;;;;;;41.40;23.73;;;9.60;93.90;;;;;;5124416;27;20030;-72
2022/01/01 11:54:15;;;;;;;15.93;8.60;;;9.70;93.80;;;;;;5125552;27;20080;-72
2022/01/01 11:56:46;;;;;;;28.83;17.45;;;9.80;93.70;;;;;;5128362;27;20030;-72
2022/01/01 11:59:27;;;;;;;25.92;17.83;;;10.20;93.60;;;;;;5125326;27;20725;-72
2022/01/01 12:02:00;;;;;;;37.22;22.95;;;10.30;93.50;;;;;;5124170;27;20023;-73
2022/01/01 12:04:42;;;;;;;16.23;7.40;;;10.40;93.40;;;;;;5124946;27;20053;-72
2022/01/01 12:07:29;;;;;;;10.73;6.00;;;10.20;93.40;;;;;;5124509;27;20084;-73
2022/01/01 12:09:58;;;;;;;9.45;5.47;;;10.10;93.00;;;;;;5116705;27;20019;-72
2022/01/01 12:15:50;;;;;;;9.38;5.40;;;10.20;93.30;;;;;;5122107;27;20057;-72
2022/01/01 12:18:53;;;;;;;12.07;5.50;;;10.30;93.60;;;;;;5125267;27;20529;-73
2022/01/01 12:21:21;;;;;;;10.57;4.60;;;10.40;93.10;;;;;;5124886;27;20170;-72
2022/01/01 12:23:48;;;;;;;10.88;5.13;;;10.50;93.00;;;;;;5124719;27;20027;-73
2022/01/01 12:26:14;;;;;;;9.10;4.97;;;10.70;93.00;;;;;;5123615;27;20035;-72
2022/01/01 12:28:43;;;;;;;9.68;5.50;;;10.70;92.40;;;;;;5125334;27;20046;-72
2022/01/01 12:31:29;;;;;;;8.88;5.10;;;10.60;92.30;;;;;;5124504;27;20031;-73
2022/01/01 12:34:00;;;;;;;11.30;5.10;;;10.60;92.60;;;;;;5123474;27;20053;-73
2022/01/01 12:36:28;;;;;;;9.45;5.10;;;10.70;92.50;;;;;;5121947;27;20023;-73
2022/01/01 12:38:57;;;;;;;14.05;7.85;;;10.70;92.60;;;;;;5106085;27;20038;-73
2022/01/01 12:41:40;;;;;;;15.63;7.80;;;10.80;92.60;;;;;;5124825;27;20556;-73
2022/01/01 12:44:15;;;;;;;16.67;10.77;;;11.00;92.20;;;;;;5123466;27;20046;-73
2022/01/01 12:46:53;;;;;;;12.77;7.30;;;11.00;92.50;;;;;;5123078;27;20525;-73
2022/01/01 12:49:19;;;;;;;8.07;5.70;;;10.90;91.90;;;;;;5124639;27;20035;-73
2022/01/01 12:51:45;;;;;;;11.38;7.22;;;10.80;92.10;;;;;;5124354;27;20083;-73
2022/01/01 12:54:13;;;;;;;12.13;8.95;;;10.80;92.60;;;;;;5124677;27;20027;-73
2022/01/01 12:56:41;;;;;;;9.20;4.70;;;10.80;92.80;;;;;;5123490;27;20366;-73
2022/01/01 12:59:10;;;;;;;10.25;4.60;;;10.80;92.10;;;;;;5124167;28;20027;-73
2022/01/01 13:01:39;;;;;;;10.80;4.78;;;10.70;92.00;;;;;;5123943;28;20035;-73
2022/01/01 13:04:10;;;;;;;11.00;5.28;;;10.80;92.40;;;;;;5124232;28;20027;-73
2022/01/01 13:06:41;;;;;;;14.63;10.88;;;10.80;92.20;;;;;;5123353;28;20031;-73
2022/01/01 13:09:14;;;;;;;10.20;5.97;;;10.80;92.30;;;;;;5124064;28;20027;-73
2022/01/01 13:11:46;;;;;;;8.40;4.95;;;10.80;92.00;;;;;;5124055;28;20130;-74
2022/01/01 13:14:13;;;;;;;8.40;5.03;;;10.80;92.00;;;;;;5124635;28;20508;-73
2022/01/01 13:16:39;;;;;;;9.32;4.65;;;10.80;92.50;;;;;;5123449;28;20105;-73
2022/01/01 13:19:06;;;;;;;10.48;4.93;;;10.70;92.50;;;;;;5123530;28;20072;-73
2022/01/01 13:21:35;;;;;;;12.27;7.35;;;10.70;92.50;;;;;;5123278;28;20019;-73
2022/01/01 13:24:02;;;;;;;13.60;7.60;;;10.80;92.70;;;;;;5103514;28;20137;-73
2022/01/01 13:26:28;;;;;;;10.40;4.88;;;10.80;92.50;;;;;;5106401;28;20042;-73